createdAt,value
2023-05-05T00:04:34.736Z,101607.66
2023-05-05T00:07:01.528Z,101617.75
2023-05-05T00:09:28.183Z,101608.88
2023-05-05T00:11:54.825Z,101619.63
2023-05-05T00:14:21.384Z,101616.53
2023-05-05T00:16:48.062Z,101626.44
2023-05-05T00:19:14.650Z,101635.88
2023-05-05T00:21:41.359Z,101626.53
2023-05-05T00:24:10.139Z,101622.28
2023-05-05T00:26:54.089Z,101613.53
2023-05-05T00:29:21.105Z,101608.81
2023-05-05T00:31:47.705Z,101608.00
2023-05-05T00:34:14.278Z,101601.97
2023-05-05T00:36:41.411Z,101596.72
2023-05-05T00:39:08.147Z,101602.72
2023-05-05T00:41:34.626Z,101608.88
2023-05-05T00:44:01.403Z,101614.44
2023-05-05T00:46:30.890Z,101623.56
2023-05-05T00:48:57.983Z,101634.44
2023-05-05T00:51:25.350Z,101635.34
2023-05-05T00:53:52.339Z,101628.69
2023-05-05T00:56:21.012Z,101642.72
2023-05-05T00:58:48.261Z,101627.69
2023-05-05T01:01:15.661Z,101625.84
2023-05-05T01:03:42.585Z,101614.28
2023-05-05T01:06:24.471Z,101608.31
2023-05-05T01:09:12.974Z,101617.66
2023-05-05T01:11:45.852Z,101606.44
2023-05-05T01:14:16.984Z,101618.28
2023-05-05T01:16:59.929Z,101613.81
2023-05-05T01:19:54.576Z,101617.59
2023-05-05T01:22:27.148Z,101628.31
2023-05-05T01:25:02.805Z,101625.94
2023-05-05T01:27:55.738Z,101621.84
2023-05-05T01:30:50.146Z,101629.59
2023-05-05T01:33:23.345Z,101626.91
2023-05-05T01:35:57.789Z,101641.44
2023-05-05T01:38:32.504Z,101638.44
2023-05-05T01:41:08.250Z,101642.44
2023-05-05T01:43:37.041Z,101641.81
2023-05-05T01:46:06.195Z,101626.97
2023-05-05T01:48:33.569Z,101640.09
2023-05-05T01:51:05.319Z,101640.41
2023-05-05T01:53:33.371Z,101648.44
2023-05-05T01:56:01.934Z,101641.50
2023-05-05T01:58:30.034Z,101658.88
2023-05-05T02:03:56.967Z,101663.47
2023-05-05T02:06:24.870Z,101668.84
2023-05-05T02:08:53.342Z,101654.63
2023-05-05T02:11:21.791Z,101636.63
2023-05-05T02:13:50.063Z,101618.44
2023-05-05T02:16:18.715Z,101617.78
2023-05-05T02:18:47.381Z,101606.88
2023-05-05T02:21:17.816Z,101608.75
2023-05-05T02:23:51.794Z,101617.59
2023-05-05T02:26:21.824Z,101628.81
2023-05-05T02:28:58.602Z,101629.13
2023-05-05T02:31:28.065Z,101637.47
2023-05-05T02:33:57.714Z,101629.13
2023-05-05T02:36:29.715Z,101635.59
2023-05-05T02:39:02.398Z,101633.50
2023-05-05T02:41:31.517Z,101634.91
2023-05-05T02:44:02.421Z,101634.91
2023-05-05T02:46:29.340Z,101629.84
2023-05-05T02:48:56.122Z,101634.72
2023-05-05T02:51:22.734Z,101634.22
2023-05-05T02:53:49.386Z,101632.47
2023-05-05T02:56:43.092Z,101625.31
2023-05-05T02:59:31.175Z,101631.41
2023-05-05T03:02:15.823Z,101627.53
2023-05-05T03:04:48.865Z,101636.22
2023-05-05T03:07:33.426Z,101637.59
2023-05-05T03:10:18.673Z,101639.28
2023-05-05T03:12:58.458Z,101639.38
2023-05-05T03:15:37.067Z,101644.66
2023-05-05T03:18:06.458Z,101650.91
2023-05-05T03:20:33.403Z,101648.63
2023-05-05T03:23:02.269Z,101649.50
2023-05-05T03:25:48.074Z,101655.78
2023-05-05T03:28:15.302Z,101658.56
2023-05-05T03:30:42.726Z,101666.69
2023-05-05T03:33:11.659Z,101669.66
2023-05-05T03:35:38.774Z,101669.47
2023-05-05T03:38:06.014Z,101664.19
2023-05-05T03:40:43.563Z,101658.16
2023-05-05T03:43:11.554Z,101643.28
2023-05-05T03:45:38.376Z,101655.34
2023-05-05T03:48:05.364Z,101655.19
2023-05-05T03:50:32.021Z,101669.94
2023-05-05T03:52:58.519Z,101668.13
2023-05-05T03:55:25.180Z,101672.22
2023-05-05T03:57:51.817Z,101685.88
2023-05-05T04:00:18.760Z,101697.38
2023-05-05T04:02:45.365Z,101693.13
2023-05-05T04:05:12.178Z,101694.19
2023-05-05T04:07:38.936Z,101699.06
2023-05-05T04:10:07.146Z,101701.22
2023-05-05T04:12:33.897Z,101713.03
2023-05-05T04:15:00.575Z,101714.13
2023-05-05T04:17:27.116Z,101719.00
2023-05-05T04:19:53.808Z,101714.22
2023-05-05T04:22:20.804Z,101721.75
2023-05-05T04:24:47.858Z,101719.66
2023-05-05T04:27:14.358Z,101730.94
2023-05-05T04:29:41.387Z,101723.50
2023-05-05T04:32:08.284Z,101730.22
2023-05-05T04:34:35.027Z,101739.63
2023-05-05T04:37:01.950Z,101742.31
2023-05-05T04:39:28.554Z,101746.03
2023-05-05T04:41:55.096Z,101750.31
2023-05-05T04:44:21.804Z,101747.38
2023-05-05T04:46:48.342Z,101744.97
2023-05-05T04:49:14.907Z,101746.59
2023-05-05T04:51:42.976Z,101744.69
2023-05-05T04:54:09.770Z,101748.94
2023-05-05T04:56:37.183Z,101750.31
2023-05-05T04:59:03.903Z,101753.22
2023-05-05T05:01:30.612Z,101751.34
2023-05-05T05:03:57.333Z,101750.78
2023-05-05T05:06:24.264Z,101750.91
2023-05-05T05:08:50.708Z,101764.91
2023-05-05T05:11:17.244Z,101764.25
2023-05-05T05:13:43.821Z,101771.03
2023-05-05T05:16:10.416Z,101765.50
2023-05-05T05:18:37.031Z,101770.69
2023-05-05T05:21:03.784Z,101762.19
2023-05-05T05:23:30.706Z,101766.75
2023-05-05T05:25:57.626Z,101764.66
2023-05-05T05:28:24.286Z,101773.53
2023-05-05T05:30:52.109Z,101769.59
2023-05-05T05:33:19.038Z,101779.50
2023-05-05T05:35:46.070Z,101780.47
2023-05-05T05:38:12.685Z,101779.84
2023-05-05T05:40:39.184Z,101779.41
2023-05-05T05:43:05.785Z,101785.81
2023-05-05T05:45:32.271Z,101780.59
2023-05-05T05:47:58.801Z,101791.78
2023-05-05T05:50:28.554Z,101783.56
2023-05-05T05:52:55.787Z,101786.50
2023-05-05T05:55:22.383Z,101789.78
2023-05-05T05:57:48.934Z,101786.47
2023-05-05T06:00:16.008Z,101788.88
2023-05-05T06:02:42.766Z,101782.44
2023-05-05T06:05:10.516Z,101780.72
2023-05-05T06:07:37.024Z,101789.13
2023-05-05T06:10:18.619Z,101792.00
2023-05-05T06:12:50.656Z,101777.91
2023-05-05T06:15:17.226Z,101773.19
2023-05-05T06:17:43.760Z,101771.31
2023-05-05T06:20:10.985Z,101774.66
2023-05-05T06:22:37.508Z,101772.94
2023-05-05T06:25:04.525Z,101772.47
2023-05-05T06:27:31.050Z,101779.75
2023-05-05T06:29:57.741Z,101775.81
2023-05-05T06:32:24.333Z,101791.03
2023-05-05T06:34:51.248Z,101796.09
2023-05-05T06:37:17.893Z,101794.50
2023-05-05T06:39:44.502Z,101799.94
2023-05-05T06:42:11.099Z,101795.78
2023-05-05T06:44:37.785Z,101796.59
2023-05-05T06:47:04.327Z,101794.19
2023-05-05T06:49:31.307Z,101800.34
2023-05-05T06:51:57.835Z,101801.75
2023-05-05T06:54:24.399Z,101803.97
2023-05-05T06:56:51.004Z,101801.88
2023-05-05T06:59:17.487Z,101811.38
2023-05-05T07:01:44.238Z,101807.84
2023-05-05T07:04:11.234Z,101814.81
2023-05-05T07:06:37.910Z,101816.38
2023-05-05T07:09:04.752Z,101818.59
2023-05-05T07:11:31.362Z,101824.16
2023-05-05T07:13:57.909Z,101821.66
2023-05-05T07:16:25.283Z,101817.66
2023-05-05T07:18:51.813Z,101823.38
2023-05-05T07:21:18.479Z,101821.78
2023-05-05T07:23:47.743Z,101818.28
2023-05-05T07:26:15.311Z,101821.50
2023-05-05T07:28:43.222Z,101823.13
2023-05-05T07:31:09.797Z,101828.84
2023-05-05T07:33:36.772Z,101828.84
2023-05-05T07:36:03.817Z,101830.09
2023-05-05T07:38:30.428Z,101830.91
2023-05-05T07:43:51.018Z,101826.56
2023-05-05T07:46:34.526Z,101825.75
2023-05-05T07:49:01.694Z,101828.75
2023-05-05T07:51:28.166Z,101829.84
2023-05-05T07:53:56.200Z,101829.69
2023-05-05T07:56:23.307Z,101831.88
2023-05-05T07:58:49.945Z,101832.66
2023-05-05T08:01:16.785Z,101826.00
2023-05-05T08:03:43.691Z,101819.63
2023-05-05T08:06:12.036Z,101825.47
2023-05-05T08:09:02.125Z,101823.50
2023-05-05T08:11:38.935Z,101830.94
2023-05-05T08:14:07.199Z,101832.69
2023-05-05T08:16:59.827Z,101838.34
2023-05-05T08:19:29.587Z,101829.22
2023-05-05T08:22:01.087Z,101831.31
2023-05-05T08:24:28.704Z,101830.00
2023-05-05T08:26:56.752Z,101835.97
2023-05-05T08:29:23.918Z,101829.81
2023-05-05T08:31:52.005Z,101828.38
2023-05-05T08:34:18.702Z,101833.56
2023-05-05T08:36:45.384Z,101829.41
2023-05-05T08:39:12.350Z,101839.34
2023-05-05T08:41:39.019Z,101833.59
2023-05-05T08:44:05.700Z,101852.06
2023-05-05T08:46:33.149Z,101849.69
2023-05-05T08:49:03.888Z,101845.88
2023-05-05T08:51:42.725Z,101842.97
2023-05-05T08:54:17.520Z,101848.81
2023-05-05T08:56:47.169Z,101855.59
2023-05-05T08:59:15.646Z,101854.72
2023-05-05T09:01:42.893Z,101862.66
2023-05-05T09:04:10.000Z,101858.63
2023-05-05T09:06:38.249Z,101850.69
2023-05-05T09:12:55.539Z,101844.84
2023-05-05T09:15:25.314Z,101845.94
2023-05-05T09:17:51.912Z,101851.63
2023-05-05T09:20:21.804Z,101847.63
2023-05-05T09:22:49.012Z,101851.44
2023-05-05T09:25:24.395Z,101849.09
2023-05-05T09:27:52.693Z,101847.00
2023-05-05T09:30:28.209Z,101842.09
2023-05-05T09:32:55.972Z,101849.72
2023-05-05T09:35:25.721Z,101856.59
2023-05-05T09:37:56.126Z,101846.72
2023-05-05T09:40:52.031Z,101848.19
2023-05-05T09:43:36.556Z,101847.31
2023-05-05T09:46:08.938Z,101846.84
2023-05-05T09:48:36.170Z,101841.91
2023-05-05T09:51:02.816Z,101847.63
2023-05-05T09:53:39.628Z,101841.66
2023-05-05T09:56:07.227Z,101835.66
2023-05-05T09:58:33.925Z,101837.91
2023-05-05T10:01:01.252Z,101845.81
2023-05-05T10:03:28.176Z,101841.66
2023-05-05T10:05:59.928Z,101846.28
2023-05-05T10:08:34.973Z,101842.34
2023-05-05T10:11:11.098Z,101844.34
2023-05-05T10:13:42.028Z,101853.94
2023-05-05T10:16:11.772Z,101865.09
2023-05-05T10:18:46.275Z,101886.84
2023-05-05T10:21:23.401Z,101895.38
2023-05-05T10:23:58.278Z,101893.28
2023-05-05T10:26:27.800Z,101885.25
2023-05-05T10:29:04.216Z,101895.94
2023-05-05T10:31:41.897Z,101903.41
2023-05-05T10:34:21.822Z,101897.63
2023-05-05T10:36:49.673Z,101897.72
2023-05-05T10:39:20.257Z,101884.91
2023-05-05T10:41:47.405Z,101878.25
2023-05-05T10:44:15.142Z,101872.88
2023-05-05T10:46:43.270Z,101886.28
2023-05-05T10:49:28.267Z,101890.75
2023-05-05T10:52:21.245Z,101889.78
2023-05-05T10:55:01.318Z,101900.38
2023-05-05T10:57:31.236Z,101896.13
2023-05-05T10:59:57.955Z,101899.47
2023-05-05T11:02:27.279Z,101913.94
2023-05-05T11:05:21.494Z,101920.25
2023-05-05T11:07:50.243Z,101922.22
2023-05-05T11:10:21.270Z,101922.81
2023-05-05T11:13:02.957Z,101927.16
2023-05-05T11:15:29.854Z,101921.28
2023-05-05T11:17:57.345Z,101921.41
2023-05-05T11:23:31.304Z,101918.06
2023-05-05T11:25:59.686Z,101909.13
2023-05-05T11:28:31.602Z,101897.38
2023-05-05T11:31:01.608Z,101899.56
2023-05-05T11:33:37.146Z,101924.13
2023-05-05T11:36:19.362Z,101933.88
2023-05-05T11:39:07.837Z,101939.66
2023-05-05T11:41:57.010Z,101936.88
2023-05-05T11:44:33.236Z,101936.59
2023-05-05T11:47:02.536Z,101933.13
2023-05-05T11:49:38.073Z,101931.72
2023-05-05T11:52:07.411Z,101927.47
2023-05-05T11:54:40.553Z,101930.66
2023-05-05T11:57:09.066Z,101930.53
2023-05-05T11:59:37.480Z,101929.94
2023-05-05T12:02:04.797Z,101934.72
2023-05-05T12:04:32.439Z,101926.06
2023-05-05T12:06:59.686Z,101929.56
2023-05-05T12:09:27.631Z,101923.38
2023-05-05T12:11:58.833Z,101923.06
2023-05-05T12:14:25.765Z,101919.81
2023-05-05T12:17:02.969Z,101924.06
2023-05-05T12:19:33.286Z,101923.00
2023-05-05T12:22:01.601Z,101922.28
2023-05-05T12:24:28.630Z,101920.09
2023-05-05T12:26:55.311Z,101926.88
2023-05-05T12:29:28.991Z,101923.56
2023-05-05T12:31:58.177Z,101918.50
2023-05-05T12:34:25.028Z,101924.19
2023-05-05T12:36:52.208Z,101929.56
2023-05-05T12:39:18.860Z,101921.50
2023-05-05T12:41:45.531Z,101923.56
2023-05-05T12:44:12.172Z,101926.19
2023-05-05T12:46:49.253Z,101921.59
2023-05-05T12:49:17.076Z,101922.09
2023-05-05T12:51:54.454Z,101908.06
2023-05-05T12:54:23.127Z,101912.56
2023-05-05T12:56:51.513Z,101901.69
2023-05-05T12:59:21.040Z,101916.13
2023-05-05T13:01:53.807Z,101906.38
2023-05-05T13:04:23.201Z,101907.84
2023-05-05T13:07:07.603Z,101901.09
2023-05-05T13:09:34.702Z,101907.84
2023-05-05T13:14:59.049Z,101904.34
2023-05-05T13:17:25.688Z,101908.81
2023-05-05T13:19:52.410Z,101912.22
2023-05-05T13:22:19.135Z,101909.84
2023-05-05T13:24:51.565Z,101910.13
2023-05-05T13:27:19.633Z,101913.72
2023-05-05T13:29:48.695Z,101920.16
2023-05-05T13:38:50.997Z,101927.72
2023-05-05T13:41:17.547Z,101933.09
2023-05-05T13:43:44.226Z,101931.72
2023-05-05T13:48:43.322Z,101931.41
2023-05-05T13:51:10.477Z,101938.38
2023-05-05T13:53:37.136Z,101941.28
2023-05-05T13:56:04.321Z,101932.72
2023-05-05T13:58:31.076Z,101936.50
2023-05-05T14:00:57.969Z,101934.41
2023-05-05T14:03:24.664Z,101925.25
2023-05-05T14:06:01.174Z,101927.44
2023-05-05T14:08:28.640Z,101925.88
2023-05-05T14:10:55.217Z,101924.97
2023-05-05T14:13:21.777Z,101916.53
2023-05-05T14:15:50.393Z,101916.81
2023-05-05T14:18:17.278Z,101913.34
2023-05-05T14:20:43.832Z,101907.97
2023-05-05T14:23:10.448Z,101899.03
2023-05-05T14:25:37.142Z,101898.72
2023-05-05T14:28:03.991Z,101886.28
2023-05-05T14:30:30.822Z,101881.72
2023-05-05T14:32:57.454Z,101886.66
2023-05-05T14:35:24.599Z,101885.25
2023-05-05T14:37:51.560Z,101872.53
2023-05-05T14:40:18.126Z,101856.41
2023-05-05T14:42:44.858Z,101868.56
2023-05-05T14:45:11.740Z,101852.16
2023-05-05T14:47:38.574Z,101830.47
2023-05-05T14:50:08.796Z,101836.63
2023-05-05T14:52:37.401Z,101828.78
2023-05-05T14:55:04.465Z,101841.78
2023-05-05T14:57:31.168Z,101862.84
2023-05-05T14:59:57.898Z,101881.34
2023-05-05T15:02:24.757Z,101887.53
2023-05-05T15:04:53.041Z,101883.16
2023-05-05T15:07:20.822Z,101874.88
2023-05-05T15:09:47.587Z,101877.31
2023-05-05T15:12:14.189Z,101873.72
2023-05-05T15:14:40.896Z,101883.00
2023-05-05T15:17:07.515Z,101881.19
2023-05-05T15:19:33.992Z,101873.28
2023-05-05T15:22:00.691Z,101873.91
2023-05-05T15:24:27.304Z,101870.47
2023-05-05T15:26:53.856Z,101867.34
2023-05-05T15:29:20.832Z,101864.84
2023-05-05T15:31:47.704Z,101859.81
2023-05-05T15:34:14.507Z,101863.31
2023-05-05T15:36:41.226Z,101854.63
2023-05-05T15:39:08.094Z,101850.91
2023-05-05T15:41:35.038Z,101843.34
2023-05-05T15:44:03.357Z,101841.50
2023-05-05T15:46:33.565Z,101839.47
2023-05-05T15:49:00.568Z,101849.00
2023-05-05T15:51:27.470Z,101846.63
2023-05-05T15:53:54.102Z,101843.44
2023-05-05T15:56:20.957Z,101835.66
2023-05-05T15:58:47.553Z,101840.66
2023-05-05T16:01:14.148Z,101841.13
2023-05-05T16:03:41.216Z,101842.34
2023-05-05T16:06:08.015Z,101842.34
2023-05-05T16:08:35.090Z,101835.06
2023-05-05T16:11:01.824Z,101839.34
2023-05-05T16:13:28.850Z,101833.78
2023-05-05T16:15:55.865Z,101833.97
2023-05-05T16:18:22.473Z,101842.41
2023-05-05T16:20:49.217Z,101835.78
2023-05-05T16:23:15.887Z,101840.88
2023-05-05T16:25:42.640Z,101833.41
2023-05-05T16:28:09.401Z,101825.81
2023-05-05T16:30:36.161Z,101826.47
2023-05-05T16:33:03.233Z,101827.25
2023-05-05T16:35:29.911Z,101816.97
2023-05-05T16:37:56.588Z,101820.63
2023-05-05T16:40:23.432Z,101815.22
2023-05-05T16:42:50.028Z,101825.38
2023-05-05T16:45:16.747Z,101822.34
2023-05-05T16:47:43.311Z,101820.63
2023-05-05T16:50:10.508Z,101810.78
2023-05-05T16:52:37.074Z,101813.31
2023-05-05T16:55:05.034Z,101817.59
2023-05-05T16:57:31.976Z,101814.75
2023-05-05T16:59:58.503Z,101814.75
2023-05-05T17:02:30.189Z,101817.13
2023-05-05T17:04:56.847Z,101826.78
2023-05-05T17:07:23.594Z,101823.59
2023-05-05T17:09:50.200Z,101821.38
2023-05-05T17:12:16.808Z,101822.34
2023-05-05T17:14:44.621Z,101823.13
2023-05-05T17:17:11.409Z,101826.94
2023-05-05T17:19:38.003Z,101827.06
2023-05-05T17:22:04.530Z,101825.47
2023-05-05T17:24:31.496Z,101830.22
2023-05-05T17:26:58.402Z,101831.16
2023-05-05T17:29:25.005Z,101827.81
2023-05-05T17:31:51.778Z,101828.88
2023-05-05T17:34:18.519Z,101836.28
2023-05-05T17:36:45.247Z,101832.47
2023-05-05T17:39:11.915Z,101825.53
2023-05-05T17:41:38.562Z,101824.91
2023-05-05T17:44:05.260Z,101827.44
2023-05-05T17:46:31.854Z,101831.41
2023-05-05T17:48:58.649Z,101830.59
2023-05-05T17:51:26.291Z,101833.31
2023-05-05T17:53:53.175Z,101840.75
2023-05-05T17:56:19.850Z,101831.88
2023-05-05T17:58:46.685Z,101838.03
2023-05-05T18:01:26.561Z,101845.81
2023-05-05T18:03:53.507Z,101848.22
2023-05-05T18:06:20.447Z,101846.91
2023-05-05T18:08:47.065Z,101846.91
2023-05-05T18:11:13.640Z,101850.22
2023-05-05T18:13:40.301Z,101851.00
2023-05-05T18:16:06.991Z,101844.97
2023-05-05T18:18:33.776Z,101852.88
2023-05-05T18:21:00.834Z,101846.22
2023-05-05T18:23:27.469Z,101844.81
2023-05-05T18:25:54.171Z,101847.97
2023-05-05T18:28:20.790Z,101842.25
2023-05-05T18:30:47.453Z,101835.78
2023-05-05T18:33:14.080Z,101848.44
2023-05-05T18:35:40.970Z,101850.94
2023-05-05T18:38:07.545Z,101854.88
2023-05-05T18:40:34.291Z,101854.38
2023-05-05T18:43:01.996Z,101854.69
2023-05-05T18:45:28.764Z,101858.50
2023-05-05T18:47:56.517Z,101862.25
2023-05-05T18:50:23.337Z,101861.00
2023-05-05T18:52:49.867Z,101859.38
2023-05-05T18:55:16.610Z,101861.09
2023-05-05T18:57:43.257Z,101865.69
2023-05-05T19:00:10.807Z,101853.19
2023-05-05T19:02:37.489Z,101854.91
2023-05-05T19:05:04.573Z,101865.47
2023-05-05T19:07:35.004Z,101859.91
2023-05-05T19:10:04.306Z,101865.09
2023-05-05T19:12:30.974Z,101870.47
2023-05-05T19:14:58.254Z,101861.75
2023-05-05T19:17:25.224Z,101869.94
2023-05-05T19:19:51.977Z,101871.66
2023-05-05T19:22:18.689Z,101868.28
2023-05-05T19:24:45.196Z,101873.94
2023-05-05T19:27:15.493Z,101882.94
2023-05-05T19:29:43.542Z,101887.03
2023-05-05T19:32:10.224Z,101890.44
2023-05-05T19:34:37.004Z,101884.34
2023-05-05T19:37:03.696Z,101884.75
2023-05-05T19:39:30.253Z,101895.63
2023-05-05T19:41:57.036Z,101891.94
2023-05-05T19:44:23.908Z,101895.72
2023-05-05T19:46:52.733Z,101898.53
2023-05-05T19:49:19.389Z,101889.78
2023-05-05T19:51:47.598Z,101898.91
2023-05-05T19:54:14.371Z,101893.66
2023-05-05T19:56:40.965Z,101896.13
2023-05-05T19:59:07.615Z,101889.47
2023-05-05T20:01:35.432Z,101900.50
2023-05-05T20:04:03.705Z,101903.31
2023-05-05T20:06:30.399Z,101905.09
2023-05-05T20:08:56.929Z,101905.50
2023-05-05T20:11:24.927Z,101904.59
2023-05-05T20:13:52.635Z,101904.78
2023-05-05T20:16:19.449Z,101907.66
2023-05-05T20:18:45.941Z,101898.69
2023-05-05T20:21:12.717Z,101903.91
2023-05-05T20:23:39.565Z,101898.22
2023-05-05T20:26:06.504Z,101901.06
2023-05-05T20:28:33.342Z,101907.09
2023-05-05T20:31:01.019Z,101904.59
2023-05-05T20:33:30.819Z,101913.28
2023-05-05T20:35:57.508Z,101911.53
2023-05-05T20:38:24.444Z,101912.19
2023-05-05T20:40:52.163Z,101920.59
2023-05-05T20:43:19.365Z,101919.84
2023-05-05T20:45:46.050Z,101918.34
2023-05-05T20:48:12.916Z,101918.41
2023-05-05T20:50:41.686Z,101913.09
2023-05-05T20:53:09.594Z,101907.84
2023-05-05T20:55:36.455Z,101907.09
2023-05-05T20:58:05.432Z,101901.28
2023-05-05T21:00:32.418Z,101894.69
2023-05-05T21:02:59.692Z,101899.28
2023-05-05T21:05:26.713Z,101905.50
2023-05-05T21:07:53.647Z,101897.81
2023-05-05T21:10:20.542Z,101902.16
2023-05-05T21:12:47.323Z,101903.28
2023-05-05T21:15:13.936Z,101904.13
2023-05-05T21:17:40.705Z,101906.06
2023-05-05T21:20:08.193Z,101903.97
2023-05-05T21:22:35.301Z,101899.44
2023-05-05T21:25:11.426Z,101902.44
2023-05-05T21:27:38.030Z,101907.81
2023-05-05T21:30:05.579Z,101896.88
2023-05-05T21:32:32.385Z,101904.16
2023-05-05T21:34:59.004Z,101895.63
2023-05-05T21:37:25.990Z,101895.66
2023-05-05T21:39:52.491Z,101899.19
2023-05-05T21:42:19.282Z,101897.09
2023-05-05T21:44:45.859Z,101900.59
2023-05-05T21:47:12.374Z,101900.06
2023-05-05T21:49:39.034Z,101898.75
2023-05-05T21:52:05.785Z,101896.16
2023-05-05T21:54:32.305Z,101891.63
2023-05-05T21:56:59.065Z,101906.34
2023-05-05T21:59:25.712Z,101899.97
2023-05-05T22:01:52.259Z,101892.25
2023-05-05T22:04:18.970Z,101893.56
2023-05-05T22:06:45.602Z,101888.81
2023-05-05T22:09:12.221Z,101888.56
2023-05-05T22:11:38.767Z,101885.09
2023-05-05T22:14:05.361Z,101894.19
2023-05-05T22:16:31.872Z,101896.88
2023-05-05T22:18:58.413Z,101896.66
2023-05-05T22:21:25.407Z,101885.16
2023-05-05T22:23:51.998Z,101899.09
2023-05-05T22:26:18.808Z,101903.13
2023-05-05T22:28:45.485Z,101897.53
2023-05-05T22:31:12.010Z,101901.28
2023-05-05T22:33:39.659Z,101901.28
2023-05-05T22:36:07.010Z,101890.38
2023-05-05T22:38:33.645Z,101893.03
2023-05-05T22:43:54.575Z,101902.13
2023-05-05T22:46:21.268Z,101892.50
2023-05-05T22:48:47.818Z,101896.00
2023-05-05T22:54:08.598Z,101897.59
2023-05-05T22:56:35.818Z,101896.00
2023-05-05T22:59:02.337Z,101895.47
2023-05-05T23:01:29.004Z,101887.47
2023-05-05T23:03:55.702Z,101882.13
2023-05-05T23:06:22.251Z,101889.84
2023-05-05T23:08:49.293Z,101890.38
2023-05-05T23:11:16.215Z,101885.03
2023-05-05T23:13:42.807Z,101884.75
2023-05-05T23:16:09.442Z,101891.19
2023-05-05T23:18:36.787Z,101890.38
2023-05-05T23:21:03.373Z,101880.50
2023-05-05T23:23:30.740Z,101885.03
2023-05-05T23:25:57.299Z,101890.66
2023-05-05T23:28:24.245Z,101883.44
2023-05-05T23:30:51.050Z,101878.94
2023-05-05T23:33:17.934Z,101872.78
2023-05-05T23:35:45.593Z,101881.34
2023-05-05T23:38:12.110Z,101877.06
2023-05-05T23:40:38.716Z,101877.63
2023-05-05T23:43:05.306Z,101878.69
2023-05-05T23:45:31.958Z,101877.38
2023-05-05T23:47:58.578Z,101879.78
2023-05-05T23:50:25.861Z,101876.59
2023-05-05T23:52:52.342Z,101873.13
2023-05-05T23:55:18.970Z,101870.47
2023-05-05T23:57:45.497Z,101871.00
